sensor_id;sensor_type;location;lat;lon;timestamp;temperature;humidity
29093;DHT22;16167;48.768;14.984;2023-03-11T00:01:19;4.00;49.10
29093;DHT22;16167;48.768;14.984;2023-03-11T00:03:47;3.90;51.10
29093;DHT22;16167;48.768;14.984;2023-03-11T00:06:16;3.90;45.60
29093;DHT22;16167;48.768;14.984;2023-03-11T00:08:44;3.90;61.80
29093;DHT22;16167;48.768;14.984;2023-03-11T00:11:11;3.80;61.60
29093;DHT22;16167;48.768;14.984;2023-03-11T00:13:39;3.80;90.30
29093;DHT22;16167;48.768;14.984;2023-03-11T00:16:09;3.80;93.50
29093;DHT22;16167;48.768;14.984;2023-03-11T00:18:37;3.80;94.90
29093;DHT22;16167;48.768;14.984;2023-03-11T00:21:05;3.80;96.40
29093;DHT22;16167;48.768;14.984;2023-03-11T00:23:32;3.70;99.20
29093;DHT22;16167;48.768;14.984;2023-03-11T00:26:01;3.70;99.90
29093;DHT22;16167;48.768;14.984;2023-03-11T00:28:29;3.70;99.00
29093;DHT22;16167;48.768;14.984;2023-03-11T00:31:00;3.70;99.90
29093;DHT22;16167;48.768;14.984;2023-03-11T00:33:30;3.60;99.90
29093;DHT22;16167;48.768;14.984;2023-03-11T00:35:58;3.70;99.00
29093;DHT22;16167;48.768;14.984;2023-03-11T00:38:26;3.70;98.10
29093;DHT22;16167;48.768;14.984;2023-03-11T00:40:54;3.70;96.30
29093;DHT22;16167;48.768;14.984;2023-03-11T00:43:21;3.60;72.80
29093;DHT22;16167;48.768;14.984;2023-03-11T00:45:49;3.50;67.10
29093;DHT22;16167;48.768;14.984;2023-03-11T00:48:17;3.50;85.00
29093;DHT22;16167;48.768;14.984;2023-03-11T00:50:46;3.50;86.90
29093;DHT22;16167;48.768;14.984;2023-03-11T00:53:14;3.40;87.00
29093;DHT22;16167;48.768;14.984;2023-03-11T00:55:42;3.30;90.10
29093;DHT22;16167;48.768;14.984;2023-03-11T00:58:10;3.30;90.10
29093;DHT22;16167;48.768;14.984;2023-03-11T01:00:38;3.40;91.20
29093;DHT22;16167;48.768;14.984;2023-03-11T01:03:06;3.30;99.90
29093;DHT22;16167;48.768;14.984;2023-03-11T01:05:35;3.30;99.10
29093;DHT22;16167;48.768;14.984;2023-03-11T01:08:05;3.30;99.90
29093;DHT22;16167;48.768;14.984;2023-03-11T01:10:33;3.30;99.90
29093;DHT22;16167;48.768;14.984;2023-03-11T01:13:01;3.30;99.90
29093;DHT22;16167;48.768;14.984;2023-03-11T01:15:30;3.20;99.90
29093;DHT22;16167;48.768;14.984;2023-03-11T01:17:58;3.20;99.90
29093;DHT22;16167;48.768;14.984;2023-03-11T01:20:26;3.20;99.90
29093;DHT22;16167;48.768;14.984;2023-03-11T01:22:54;3.20;99.90
29093;DHT22;16167;48.768;14.984;2023-03-11T01:25:24;3.20;99.90
29093;DHT22;16167;48.768;14.984;2023-03-11T01:27:52;3.10;99.90
29093;DHT22;16167;48.768;14.984;2023-03-11T01:30:21;3.10;99.90
29093;DHT22;16167;48.768;14.984;2023-03-11T01:32:49;3.00;99.90
29093;DHT22;16167;48.768;14.984;2023-03-11T01:35:17;3.00;99.90
29093;DHT22;16167;48.768;14.984;2023-03-11T01:37:45;3.10;99.90
29093;DHT22;16167;48.768;14.984;2023-03-11T01:40:14;3.10;98.60
29093;DHT22;16167;48.768;14.984;2023-03-11T01:42:44;3.10;98.30
29093;DHT22;16167;48.768;14.984;2023-03-11T01:45:24;3.10;97.40
29093;DHT22;16167;48.768;14.984;2023-03-11T01:47:53;3.00;97.30
29093;DHT22;16167;48.768;14.984;2023-03-11T01:50:21;2.90;97.60
29093;DHT22;16167;48.768;14.984;2023-03-11T01:52:49;2.90;97.30
29093;DHT22;16167;48.768;14.984;2023-03-11T01:55:17;2.90;97.50
29093;DHT22;16167;48.768;14.984;2023-03-11T01:57:46;2.80;96.90
29093;DHT22;16167;48.768;14.984;2023-03-11T02:00:15;2.80;97.30
29093;DHT22;16167;48.768;14.984;2023-03-11T02:02:44;2.80;97.20
29093;DHT22;16167;48.768;14.984;2023-03-11T02:05:15;2.70;96.60
29093;DHT22;16167;48.768;14.984;2023-03-11T02:07:43;2.60;96.60
29093;DHT22;16167;48.768;14.984;2023-03-11T02:10:12;2.50;95.80
29093;DHT22;16167;48.768;14.984;2023-03-11T02:12:40;2.60;96.10
29093;DHT22;16167;48.768;14.984;2023-03-11T02:15:11;2.60;96.10
29093;DHT22;16167;48.768;14.984;2023-03-11T02:17:39;2.50;95.40
29093;DHT22;16167;48.768;14.984;2023-03-11T02:20:11;2.50;95.30
29093;DHT22;16167;48.768;14.984;2023-03-11T02:22:42;2.50;95.80
29093;DHT22;16167;48.768;14.984;2023-03-11T02:25:10;2.50;95.10
29093;DHT22;16167;48.768;14.984;2023-03-11T02:27:44;2.40;95.00
29093;DHT22;16167;48.768;14.984;2023-03-11T02:30:13;2.40;94.90
29093;DHT22;16167;48.768;14.984;2023-03-11T02:32:42;2.40;95.60
29093;DHT22;16167;48.768;14.984;2023-03-11T02:35:12;2.40;95.40
29093;DHT22;16167;48.768;14.984;2023-03-11T02:37:44;2.30;95.30
29093;DHT22;16167;48.768;14.984;2023-03-11T02:40:27;2.30;95.10
29093;DHT22;16167;48.768;14.984;2023-03-11T02:42:59;2.30;95.20
29093;DHT22;16167;48.768;14.984;2023-03-11T02:45:29;2.30;94.80
29093;DHT22;16167;48.768;14.984;2023-03-11T02:47:57;2.30;95.20
29093;DHT22;16167;48.768;14.984;2023-03-11T02:50:26;2.20;95.50
29093;DHT22;16167;48.768;14.984;2023-03-11T02:52:55;2.10;95.70
29093;DHT22;16167;48.768;14.984;2023-03-11T02:55:23;2.10;95.90
29093;DHT22;16167;48.768;14.984;2023-03-11T02:57:51;2.10;96.20
29093;DHT22;16167;48.768;14.984;2023-03-11T03:00:20;2.10;96.10
29093;DHT22;16167;48.768;14.984;2023-03-11T03:02:48;2.10;96.50
29093;DHT22;16167;48.768;14.984;2023-03-11T03:05:18;2.10;96.60
29093;DHT22;16167;48.768;14.984;2023-03-11T03:07:46;2.10;96.50
29093;DHT22;16167;48.768;14.984;2023-03-11T03:10:14;2.00;96.40
29093;DHT22;16167;48.768;14.984;2023-03-11T03:12:42;2.00;96.30
29093;DHT22;16167;48.768;14.984;2023-03-11T03:15:10;2.00;96.20
29093;DHT22;16167;48.768;14.984;2023-03-11T03:17:40;2.00;95.90
29093;DHT22;16167;48.768;14.984;2023-03-11T03:20:08;2.00;95.90
29093;DHT22;16167;48.768;14.984;2023-03-11T03:22:38;2.00;96.00
29093;DHT22;16167;48.768;14.984;2023-03-11T03:25:07;1.90;96.00
29093;DHT22;16167;48.768;14.984;2023-03-11T03:27:35;1.90;95.80
29093;DHT22;16167;48.768;14.984;2023-03-11T03:30:03;1.90;95.80
29093;DHT22;16167;48.768;14.984;2023-03-11T03:32:31;1.90;96.00
29093;DHT22;16167;48.768;14.984;2023-03-11T03:35:01;1.80;95.90
29093;DHT22;16167;48.768;14.984;2023-03-11T03:37:31;1.80;96.00
29093;DHT22;16167;48.768;14.984;2023-03-11T03:39:59;1.80;96.10
29093;DHT22;16167;48.768;14.984;2023-03-11T03:42:27;1.80;95.60
29093;DHT22;16167;48.768;14.984;2023-03-11T03:44:55;1.80;95.80
29093;DHT22;16167;48.768;14.984;2023-03-11T03:47:23;1.80;95.70
29093;DHT22;16167;48.768;14.984;2023-03-11T03:49:50;1.90;95.70
29093;DHT22;16167;48.768;14.984;2023-03-11T03:52:20;1.90;95.70
29093;DHT22;16167;48.768;14.984;2023-03-11T03:54:47;1.90;95.50
29093;DHT22;16167;48.768;14.984;2023-03-11T03:57:16;1.90;95.00
29093;DHT22;16167;48.768;14.984;2023-03-11T03:59:44;1.90;95.50
29093;DHT22;16167;48.768;14.984;2023-03-11T04:02:12;1.90;95.20
29093;DHT22;16167;48.768;14.984;2023-03-11T04:04:40;1.80;95.20
29093;DHT22;16167;48.768;14.984;2023-03-11T04:07:08;1.80;95.40
29093;DHT22;16167;48.768;14.984;2023-03-11T04:09:38;1.80;95.00
29093;DHT22;16167;48.768;14.984;2023-03-11T04:12:07;1.80;95.00
29093;DHT22;16167;48.768;14.984;2023-03-11T04:14:35;1.80;95.00
29093;DHT22;16167;48.768;14.984;2023-03-11T04:17:03;1.80;95.10
29093;DHT22;16167;48.768;14.984;2023-03-11T04:19:31;1.80;95.00
29093;DHT22;16167;48.768;14.984;2023-03-11T04:21:59;1.80;95.30
29093;DHT22;16167;48.768;14.984;2023-03-11T04:24:27;1.70;95.20
29093;DHT22;16167;48.768;14.984;2023-03-11T04:26:56;1.70;95.20
29093;DHT22;16167;48.768;14.984;2023-03-11T04:29:24;1.70;95.20
29093;DHT22;16167;48.768;14.984;2023-03-11T04:31:52;1.70;95.30
29093;DHT22;16167;48.768;14.984;2023-03-11T04:34:19;1.70;95.50
29093;DHT22;16167;48.768;14.984;2023-03-11T04:36:50;1.70;95.50
29093;DHT22;16167;48.768;14.984;2023-03-11T04:39:17;1.60;95.10
29093;DHT22;16167;48.768;14.984;2023-03-11T04:41:45;1.70;94.90
29093;DHT22;16167;48.768;14.984;2023-03-11T04:44:15;1.70;94.60
29093;DHT22;16167;48.768;14.984;2023-03-11T04:46:43;1.70;94.80
29093;DHT22;16167;48.768;14.984;2023-03-11T04:49:10;1.80;94.50
29093;DHT22;16167;48.768;14.984;2023-03-11T04:51:38;1.80;94.60
29093;DHT22;16167;48.768;14.984;2023-03-11T04:54:06;1.70;94.60
29093;DHT22;16167;48.768;14.984;2023-03-11T04:56:34;1.70;94.20
29093;DHT22;16167;48.768;14.984;2023-03-11T04:59:02;1.70;94.20
29093;DHT22;16167;48.768;14.984;2023-03-11T05:01:31;1.70;94.40
29093;DHT22;16167;48.768;14.984;2023-03-11T05:03:59;1.70;94.60
29093;DHT22;16167;48.768;14.984;2023-03-11T05:06:27;1.70;94.40
29093;DHT22;16167;48.768;14.984;2023-03-11T05:08:55;1.70;94.30
29093;DHT22;16167;48.768;14.984;2023-03-11T05:11:24;1.80;94.10
29093;DHT22;16167;48.768;14.984;2023-03-11T05:13:52;1.80;93.90
29093;DHT22;16167;48.768;14.984;2023-03-11T05:16:20;1.80;94.00
29093;DHT22;16167;48.768;14.984;2023-03-11T05:18:49;1.70;93.90
29093;DHT22;16167;48.768;14.984;2023-03-11T05:21:17;1.70;93.90
29093;DHT22;16167;48.768;14.984;2023-03-11T05:23:45;1.70;93.80
29093;DHT22;16167;48.768;14.984;2023-03-11T05:26:13;1.70;93.90
29093;DHT22;16167;48.768;14.984;2023-03-11T05:28:41;1.70;93.70
29093;DHT22;16167;48.768;14.984;2023-03-11T05:31:09;1.70;93.60
29093;DHT22;16167;48.768;14.984;2023-03-11T05:33:37;1.70;93.80
29093;DHT22;16167;48.768;14.984;2023-03-11T05:36:07;1.70;93.40
29093;DHT22;16167;48.768;14.984;2023-03-11T05:38:36;1.70;92.90
29093;DHT22;16167;48.768;14.984;2023-03-11T05:41:04;1.70;93.30
29093;DHT22;16167;48.768;14.984;2023-03-11T05:43:32;1.70;92.80
29093;DHT22;16167;48.768;14.984;2023-03-11T05:46:00;1.70;92.70
29093;DHT22;16167;48.768;14.984;2023-03-11T05:48:28;1.70;92.60
29093;DHT22;16167;48.768;14.984;2023-03-11T05:50:56;1.70;92.60
29093;DHT22;16167;48.768;14.984;2023-03-11T05:53:26;1.70;92.40
29093;DHT22;16167;48.768;14.984;2023-03-11T05:55:54;1.70;92.20
29093;DHT22;16167;48.768;14.984;2023-03-11T05:58:22;1.70;92.00
29093;DHT22;16167;48.768;14.984;2023-03-11T06:00:50;1.80;92.20
29093;DHT22;16167;48.768;14.984;2023-03-11T06:03:18;1.80;91.90
29093;DHT22;16167;48.768;14.984;2023-03-11T06:05:46;1.70;91.60
29093;DHT22;16167;48.768;14.984;2023-03-11T06:08:14;1.70;92.20
29093;DHT22;16167;48.768;14.984;2023-03-11T06:10:44;1.70;92.20
29093;DHT22;16167;48.768;14.984;2023-03-11T06:13:14;1.70;92.00
29093;DHT22;16167;48.768;14.984;2023-03-11T06:15:42;1.70;91.20
29093;DHT22;16167;48.768;14.984;2023-03-11T06:18:10;1.80;91.40
29093;DHT22;16167;48.768;14.984;2023-03-11T06:20:38;1.80;91.20
29093;DHT22;16167;48.768;14.984;2023-03-11T06:23:06;1.80;91.20
29093;DHT22;16167;48.768;14.984;2023-03-11T06:25:34;1.80;91.30
29093;DHT22;16167;48.768;14.984;2023-03-11T06:28:03;1.80;91.30
29093;DHT22;16167;48.768;14.984;2023-03-11T06:30:31;1.80;91.30
29093;DHT22;16167;48.768;14.984;2023-03-11T06:32:59;1.80;91.40
29093;DHT22;16167;48.768;14.984;2023-03-11T06:35:27;1.80;91.30
29093;DHT22;16167;48.768;14.984;2023-03-11T06:37:55;1.90;91.40
29093;DHT22;16167;48.768;14.984;2023-03-11T06:40:23;1.90;91.40
29093;DHT22;16167;48.768;14.984;2023-03-11T06:42:51;2.00;91.00
29093;DHT22;16167;48.768;14.984;2023-03-11T06:45:20;2.00;91.20
29093;DHT22;16167;48.768;14.984;2023-03-11T06:47:48;2.10;90.90
29093;DHT22;16167;48.768;14.984;2023-03-11T06:50:16;2.20;91.00
29093;DHT22;16167;48.768;14.984;2023-03-11T06:52:44;2.20;90.50
29093;DHT22;16167;48.768;14.984;2023-03-11T06:55:12;2.30;91.10
29093;DHT22;16167;48.768;14.984;2023-03-11T06:57:40;2.30;90.40
29093;DHT22;16167;48.768;14.984;2023-03-11T07:00:08;2.40;90.40
29093;DHT22;16167;48.768;14.984;2023-03-11T07:02:39;2.40;90.30
29093;DHT22;16167;48.768;14.984;2023-03-11T07:05:07;2.50;90.10
29093;DHT22;16167;48.768;14.984;2023-03-11T07:07:35;2.60;90.30
29093;DHT22;16167;48.768;14.984;2023-03-11T07:10:03;2.60;90.30
29093;DHT22;16167;48.768;14.984;2023-03-11T07:12:31;2.60;90.10
29093;DHT22;16167;48.768;14.984;2023-03-11T07:14:59;2.70;90.20
29093;DHT22;16167;48.768;14.984;2023-03-11T07:17:27;2.70;90.10
29093;DHT22;16167;48.768;14.984;2023-03-11T07:19:56;2.80;90.10
29093;DHT22;16167;48.768;14.984;2023-03-11T07:22:24;2.80;90.20
29093;DHT22;16167;48.768;14.984;2023-03-11T07:24:52;2.90;90.80
29093;DHT22;16167;48.768;14.984;2023-03-11T07:27:20;3.00;90.20
29093;DHT22;16167;48.768;14.984;2023-03-11T07:29:48;2.90;90.10
29093;DHT22;16167;48.768;14.984;2023-03-11T07:32:16;3.10;90.00
29093;DHT22;16167;48.768;14.984;2023-03-11T07:34:44;3.10;89.10
29093;DHT22;16167;48.768;14.984;2023-03-11T07:37:14;3.20;88.60
29093;DHT22;16167;48.768;14.984;2023-03-11T07:39:42;3.20;88.60
29093;DHT22;16167;48.768;14.984;2023-03-11T07:42:09;3.10;89.00
29093;DHT22;16167;48.768;14.984;2023-03-11T07:44:37;3.10;89.60
29093;DHT22;16167;48.768;14.984;2023-03-11T07:47:05;3.10;89.70
29093;DHT22;16167;48.768;14.984;2023-03-11T07:49:33;3.10;89.70
29093;DHT22;16167;48.768;14.984;2023-03-11T07:52:01;3.30;90.10
29093;DHT22;16167;48.768;14.984;2023-03-11T07:54:30;3.30;89.30
29093;DHT22;16167;48.768;14.984;2023-03-11T07:56:58;3.40;88.50
29093;DHT22;16167;48.768;14.984;2023-03-11T07:59:26;3.40;88.60
29093;DHT22;16167;48.768;14.984;2023-03-11T08:01:54;3.40;88.10
29093;DHT22;16167;48.768;14.984;2023-03-11T08:04:22;3.40;88.80
29093;DHT22;16167;48.768;14.984;2023-03-11T08:06:50;3.40;88.70
29093;DHT22;16167;48.768;14.984;2023-03-11T08:09:18;3.40;88.80
29093;DHT22;16167;48.768;14.984;2023-03-11T08:11:47;3.50;89.40
29093;DHT22;16167;48.768;14.984;2023-03-11T08:14:15;3.40;88.60
29093;DHT22;16167;48.768;14.984;2023-03-11T08:16:43;3.50;89.00
29093;DHT22;16167;48.768;14.984;2023-03-11T08:19:11;3.40;88.20
29093;DHT22;16167;48.768;14.984;2023-03-11T08:21:39;3.40;87.50
29093;DHT22;16167;48.768;14.984;2023-03-11T08:24:08;3.40;88.30
29093;DHT22;16167;48.768;14.984;2023-03-11T08:26:37;3.30;88.70
29093;DHT22;16167;48.768;14.984;2023-03-11T08:29:06;3.20;89.10
29093;DHT22;16167;48.768;14.984;2023-03-11T08:31:34;3.10;88.70
29093;DHT22;16167;48.768;14.984;2023-03-11T08:34:03;3.00;89.30
29093;DHT22;16167;48.768;14.984;2023-03-11T08:36:31;3.00;89.70
29093;DHT22;16167;48.768;14.984;2023-03-11T08:38:59;3.00;90.20
29093;DHT22;16167;48.768;14.984;2023-03-11T08:41:27;3.10;90.70
29093;DHT22;16167;48.768;14.984;2023-03-11T08:43:55;3.10;91.90
29093;DHT22;16167;48.768;14.984;2023-03-11T08:46:25;3.10;92.50
29093;DHT22;16167;48.768;14.984;2023-03-11T08:48:54;3.00;92.10
29093;DHT22;16167;48.768;14.984;2023-03-11T08:51:25;2.90;92.50
29093;DHT22;16167;48.768;14.984;2023-03-11T08:53:53;2.90;92.30
29093;DHT22;16167;48.768;14.984;2023-03-11T08:56:21;2.90;93.00
29093;DHT22;16167;48.768;14.984;2023-03-11T08:58:49;2.90;93.80
29093;DHT22;16167;48.768;14.984;2023-03-11T09:01:17;2.80;94.10
29093;DHT22;16167;48.768;14.984;2023-03-11T09:03:47;2.80;93.60
29093;DHT22;16167;48.768;14.984;2023-03-11T09:06:15;2.70;92.70
29093;DHT22;16167;48.768;14.984;2023-03-11T09:08:43;2.80;93.20
29093;DHT22;16167;48.768;14.984;2023-03-11T09:11:12;2.80;91.70
29093;DHT22;16167;48.768;14.984;2023-03-11T09:13:40;2.90;91.20
29093;DHT22;16167;48.768;14.984;2023-03-11T09:16:08;3.00;91.60
29093;DHT22;16167;48.768;14.984;2023-03-11T09:18:37;3.20;91.10
29093;DHT22;16167;48.768;14.984;2023-03-11T09:21:07;3.40;90.80
29093;DHT22;16167;48.768;14.984;2023-03-11T09:23:35;3.40;90.30
29093;DHT22;16167;48.768;14.984;2023-03-11T09:26:03;3.40;90.00
29093;DHT22;16167;48.768;14.984;2023-03-11T09:28:31;3.30;90.00
29093;DHT22;16167;48.768;14.984;2023-03-11T09:30:59;3.60;90.30
29093;DHT22;16167;48.768;14.984;2023-03-11T09:33:27;4.10;89.50
29093;DHT22;16167;48.768;14.984;2023-03-11T09:35:56;4.50;88.90
29093;DHT22;16167;48.768;14.984;2023-03-11T09:38:25;4.80;86.30
29093;DHT22;16167;48.768;14.984;2023-03-11T09:40:56;5.10;86.60
29093;DHT22;16167;48.768;14.984;2023-03-11T09:43:30;5.10;84.70
29093;DHT22;16167;48.768;14.984;2023-03-11T09:46:03;5.30;83.00
29093;DHT22;16167;48.768;14.984;2023-03-11T09:48:33;5.30;81.00
29093;DHT22;16167;48.768;14.984;2023-03-11T09:51:04;5.30;79.80
29093;DHT22;16167;48.768;14.984;2023-03-11T09:53:37;5.50;78.70
29093;DHT22;16167;48.768;14.984;2023-03-11T09:56:07;6.00;78.10
29093;DHT22;16167;48.768;14.984;2023-03-11T09:58:36;6.00;76.10
29093;DHT22;16167;48.768;14.984;2023-03-11T10:01:08;6.20;75.10
29093;DHT22;16167;48.768;14.984;2023-03-11T10:03:39;5.90;74.00
29093;DHT22;16167;48.768;14.984;2023-03-11T10:06:11;5.70;77.40
29093;DHT22;16167;48.768;14.984;2023-03-11T10:08:43;5.60;77.00
29093;DHT22;16167;48.768;14.984;2023-03-11T10:11:18;5.80;77.80
29093;DHT22;16167;48.768;14.984;2023-03-11T10:13:50;5.80;76.30
29093;DHT22;16167;48.768;14.984;2023-03-11T10:16:23;6.10;76.30
29093;DHT22;16167;48.768;14.984;2023-03-11T10:18:56;6.10;74.60
29093;DHT22;16167;48.768;14.984;2023-03-11T10:21:32;5.80;73.40
29093;DHT22;16167;48.768;14.984;2023-03-11T10:24:10;5.60;74.80
29093;DHT22;16167;48.768;14.984;2023-03-11T10:26:40;5.50;75.00
29093;DHT22;16167;48.768;14.984;2023-03-11T10:29:11;5.30;74.50
29093;DHT22;16167;48.768;14.984;2023-03-11T10:31:41;5.10;74.90
29093;DHT22;16167;48.768;14.984;2023-03-11T10:34:12;5.10;75.80
29093;DHT22;16167;48.768;14.984;2023-03-11T10:36:45;4.90;75.30
29093;DHT22;16167;48.768;14.984;2023-03-11T10:39:18;4.80;75.90
29093;DHT22;16167;48.768;14.984;2023-03-11T10:41:46;4.70;74.20
29093;DHT22;16167;48.768;14.984;2023-03-11T10:44:17;4.70;74.10
29093;DHT22;16167;48.768;14.984;2023-03-11T10:46:46;4.70;72.60
29093;DHT22;16167;48.768;14.984;2023-03-11T10:49:14;4.50;71.80
29093;DHT22;16167;48.768;14.984;2023-03-11T10:51:43;4.50;73.20
29093;DHT22;16167;48.768;14.984;2023-03-11T10:54:20;4.50;74.20
29093;DHT22;16167;48.768;14.984;2023-03-11T10:56:49;4.60;74.50
29093;DHT22;16167;48.768;14.984;2023-03-11T10:59:21;4.50;73.00
29093;DHT22;16167;48.768;14.984;2023-03-11T11:01:52;4.40;72.80
29093;DHT22;16167;48.768;14.984;2023-03-11T11:04:31;4.30;73.70
29093;DHT22;16167;48.768;14.984;2023-03-11T11:07:20;4.20;73.90
29093;DHT22;16167;48.768;14.984;2023-03-11T11:09:54;4.20;75.00
29093;DHT22;16167;48.768;14.984;2023-03-11T11:12:36;4.10;74.60
29093;DHT22;16167;48.768;14.984;2023-03-11T11:15:04;4.10;75.50
29093;DHT22;16167;48.768;14.984;2023-03-11T11:17:33;4.10;74.70
29093;DHT22;16167;48.768;14.984;2023-03-11T11:20:01;4.10;75.00
29093;DHT22;16167;48.768;14.984;2023-03-11T11:22:38;4.30;76.20
29093;DHT22;16167;48.768;14.984;2023-03-11T11:25:24;4.40;75.50
29093;DHT22;16167;48.768;14.984;2023-03-11T11:27:53;4.40;73.90
29093;DHT22;16167;48.768;14.984;2023-03-11T11:30:22;4.30;73.40
29093;DHT22;16167;48.768;14.984;2023-03-11T11:32:50;4.30;73.80
29093;DHT22;16167;48.768;14.984;2023-03-11T11:35:20;4.30;74.20
29093;DHT22;16167;48.768;14.984;2023-03-11T11:37:48;4.20;73.90
29093;DHT22;16167;48.768;14.984;2023-03-11T11:40:20;4.10;74.30
29093;DHT22;16167;48.768;14.984;2023-03-11T11:42:51;3.90;73.90
29093;DHT22;16167;48.768;14.984;2023-03-11T11:45:23;3.90;74.30
29093;DHT22;16167;48.768;14.984;2023-03-11T11:47:54;4.10;74.50
29093;DHT22;16167;48.768;14.984;2023-03-11T11:50:25;4.80;73.70
29093;DHT22;16167;48.768;14.984;2023-03-11T11:52:56;5.20;71.70
29093;DHT22;16167;48.768;14.984;2023-03-11T11:55:25;5.60;70.30
29093;DHT22;16167;48.768;14.984;2023-03-11T11:57:55;5.60;69.60
29093;DHT22;16167;48.768;14.984;2023-03-11T12:00:24;5.40;67.80
29093;DHT22;16167;48.768;14.984;2023-03-11T12:03:01;5.30;68.60
29093;DHT22;16167;48.768;14.984;2023-03-11T12:05:34;5.10;68.40
29093;DHT22;16167;48.768;14.984;2023-03-11T12:08:07;4.90;69.60
29093;DHT22;16167;48.768;14.984;2023-03-11T12:10:38;4.80;71.10
29093;DHT22;16167;48.768;14.984;2023-03-11T12:16:09;4.90;72.10
29093;DHT22;16167;48.768;14.984;2023-03-11T12:18:40;5.10;71.60
29093;DHT22;16167;48.768;14.984;2023-03-11T12:21:12;5.20;71.60
29093;DHT22;16167;48.768;14.984;2023-03-11T12:23:44;5.60;72.00
29093;DHT22;16167;48.768;14.984;2023-03-11T12:26:20;5.40;70.70
29093;DHT22;16167;48.768;14.984;2023-03-11T12:28:49;5.00;69.60
29093;DHT22;16167;48.768;14.984;2023-03-11T12:31:21;4.80;70.90
29093;DHT22;16167;48.768;14.984;2023-03-11T12:33:54;4.70;71.90
29093;DHT22;16167;48.768;14.984;2023-03-11T12:36:23;4.60;71.10
29093;DHT22;16167;48.768;14.984;2023-03-11T12:38:52;4.60;71.20
29093;DHT22;16167;48.768;14.984;2023-03-11T12:41:27;4.40;70.70
29093;DHT22;16167;48.768;14.984;2023-03-11T12:44:00;4.50;72.00
29093;DHT22;16167;48.768;14.984;2023-03-11T12:49:17;4.50;72.30
29093;DHT22;16167;48.768;14.984;2023-03-11T12:51:59;4.50;71.10
29093;DHT22;16167;48.768;14.984;2023-03-11T12:54:28;4.40;68.30
29093;DHT22;16167;48.768;14.984;2023-03-11T12:56:57;4.40;69.10
29093;DHT22;16167;48.768;14.984;2023-03-11T13:02:19;4.20;69.90
29093;DHT22;16167;48.768;14.984;2023-03-11T13:04:54;4.10;70.00
29093;DHT22;16167;48.768;14.984;2023-03-11T13:07:38;4.00;71.30
29093;DHT22;16167;48.768;14.984;2023-03-11T13:12:54;3.90;72.00
29093;DHT22;16167;48.768;14.984;2023-03-11T13:15:30;3.90;72.20
29093;DHT22;16167;48.768;14.984;2023-03-11T13:18:01;3.90;73.10
29093;DHT22;16167;48.768;14.984;2023-03-11T13:20:45;3.90;72.60
29093;DHT22;16167;48.768;14.984;2023-03-11T13:23:25;4.10;73.20
29093;DHT22;16167;48.768;14.984;2023-03-11T13:28:44;4.70;72.60
29093;DHT22;16167;48.768;14.984;2023-03-11T13:31:24;4.80;71.60
29093;DHT22;16167;48.768;14.984;2023-03-11T13:33:57;4.90;69.30
29093;DHT22;16167;48.768;14.984;2023-03-11T13:39:22;6.30;66.10
29093;DHT22;16167;48.768;14.984;2023-03-11T13:41:52;8.00;62.90
29093;DHT22;16167;48.768;14.984;2023-03-11T13:44:23;7.80;59.40
29093;DHT22;16167;48.768;14.984;2023-03-11T13:46:53;7.40;58.70
29093;DHT22;16167;48.768;14.984;2023-03-11T13:49:25;6.50;61.40
29093;DHT22;16167;48.768;14.984;2023-03-11T13:51:55;5.90;62.70
29093;DHT22;16167;48.768;14.984;2023-03-11T13:54:29;5.60;63.00
29093;DHT22;16167;48.768;14.984;2023-03-11T13:56:58;5.30;65.30
29093;DHT22;16167;48.768;14.984;2023-03-11T13:59:27;5.00;65.60
29093;DHT22;16167;48.768;14.984;2023-03-11T14:01:58;4.80;66.70
29093;DHT22;16167;48.768;14.984;2023-03-11T14:04:27;4.60;67.10
29093;DHT22;16167;48.768;14.984;2023-03-11T14:06:55;4.50;68.60
29093;DHT22;16167;48.768;14.984;2023-03-11T14:09:24;4.40;68.60
29093;DHT22;16167;48.768;14.984;2023-03-11T14:11:54;4.40;69.90
29093;DHT22;16167;48.768;14.984;2023-03-11T14:14:33;4.40;69.80
29093;DHT22;16167;48.768;14.984;2023-03-11T14:17:01;4.60;70.10
29093;DHT22;16167;48.768;14.984;2023-03-11T14:19:30;4.60;70.00
29093;DHT22;16167;48.768;14.984;2023-03-11T14:21:58;4.70;69.80
29093;DHT22;16167;48.768;14.984;2023-03-11T14:24:27;4.70;69.60
29093;DHT22;16167;48.768;14.984;2023-03-11T14:26:57;4.60;69.90
29093;DHT22;16167;48.768;14.984;2023-03-11T14:29:29;4.50;70.40
29093;DHT22;16167;48.768;14.984;2023-03-11T14:31:57;4.50;71.20
29093;DHT22;16167;48.768;14.984;2023-03-11T14:34:26;4.50;71.30
29093;DHT22;16167;48.768;14.984;2023-03-11T14:36:55;4.40;70.20
29093;DHT22;16167;48.768;14.984;2023-03-11T14:39:27;4.40;70.30
29093;DHT22;16167;48.768;14.984;2023-03-11T14:41:57;4.20;70.40
29093;DHT22;16167;48.768;14.984;2023-03-11T14:44:26;4.10;69.70
29093;DHT22;16167;48.768;14.984;2023-03-11T14:47:00;4.00;71.00
29093;DHT22;16167;48.768;14.984;2023-03-11T14:49:29;3.90;71.50
29093;DHT22;16167;48.768;14.984;2023-03-11T14:51:58;3.80;71.70
29093;DHT22;16167;48.768;14.984;2023-03-11T14:54:28;3.70;71.70
29093;DHT22;16167;48.768;14.984;2023-03-11T14:57:00;3.50;72.70
29093;DHT22;16167;48.768;14.984;2023-03-11T14:59:30;3.50;73.60
29093;DHT22;16167;48.768;14.984;2023-03-11T15:02:01;3.40;72.80
29093;DHT22;16167;48.768;14.984;2023-03-11T15:04:31;3.30;73.10
29093;DHT22;16167;48.768;14.984;2023-03-11T15:07:00;3.20;73.80
29093;DHT22;16167;48.768;14.984;2023-03-11T15:09:30;3.10;73.90
29093;DHT22;16167;48.768;14.984;2023-03-11T15:12:00;3.10;75.10
29093;DHT22;16167;48.768;14.984;2023-03-11T15:14:30;3.10;75.30
29093;DHT22;16167;48.768;14.984;2023-03-11T15:17:07;3.10;75.60
29093;DHT22;16167;48.768;14.984;2023-03-11T15:19:43;3.00;75.50
29093;DHT22;16167;48.768;14.984;2023-03-11T15:22:21;3.00;76.50
29093;DHT22;16167;48.768;14.984;2023-03-11T15:24:50;3.00;76.90
29093;DHT22;16167;48.768;14.984;2023-03-11T15:27:25;3.00;77.40
29093;DHT22;16167;48.768;14.984;2023-03-11T15:29:54;3.00;77.40
29093;DHT22;16167;48.768;14.984;2023-03-11T15:32:32;2.90;77.30
29093;DHT22;16167;48.768;14.984;2023-03-11T15:35:10;3.00;77.90
29093;DHT22;16167;48.768;14.984;2023-03-11T15:37:40;3.00;78.10
29093;DHT22;16167;48.768;14.984;2023-03-11T15:40:12;3.00;77.90
29093;DHT22;16167;48.768;14.984;2023-03-11T15:42:47;2.90;78.30
29093;DHT22;16167;48.768;14.984;2023-03-11T15:45:16;2.90;78.90
29093;DHT22;16167;48.768;14.984;2023-03-11T15:47:44;2.90;78.40
29093;DHT22;16167;48.768;14.984;2023-03-11T15:50:20;2.90;78.90
29093;DHT22;16167;48.768;14.984;2023-03-11T15:52:55;2.80;78.70
29093;DHT22;16167;48.768;14.984;2023-03-11T15:55:24;2.70;78.10
29093;DHT22;16167;48.768;14.984;2023-03-11T15:57:56;2.60;78.20
29093;DHT22;16167;48.768;14.984;2023-03-11T16:00:25;2.60;78.40
29093;DHT22;16167;48.768;14.984;2023-03-11T16:02:53;2.60;78.50